createdAt,value
2018-06-16T00:00:37.087Z,68.86
2018-06-16T00:01:17.657Z,68.86
2018-06-16T00:01:58.227Z,69.15
2018-06-16T00:02:38.792Z,68.76
2018-06-16T00:03:19.375Z,68.86
2018-06-16T00:03:59.939Z,68.96
2018-06-16T00:04:40.505Z,69.24
2018-06-16T00:05:21.065Z,69.24
2018-06-16T00:06:01.664Z,69.15
2018-06-16T00:06:42.233Z,69.24
2018-06-16T00:07:22.796Z,69.15
2018-06-16T00:08:03.401Z,69.06
2018-06-16T00:08:43.952Z,68.86
2018-06-16T00:09:24.530Z,68.86
2018-06-16T00:10:05.092Z,69.24
2018-06-16T00:10:45.661Z,69.34
2018-06-16T00:11:26.522Z,69.44
2018-06-16T00:12:06.914Z,69.44
2018-06-16T00:12:47.504Z,69.44
2018-06-16T00:13:28.055Z,69.24
2018-06-16T00:14:08.633Z,69.44
2018-06-16T00:14:49.189Z,69.44
2018-06-16T00:15:29.749Z,69.63
2018-06-16T00:16:10.315Z,69.53
2018-06-16T00:16:50.874Z,69.24
2018-06-16T00:17:31.440Z,69.34
2018-06-16T00:18:12.007Z,69.44
2018-06-16T00:18:52.576Z,69.15
2018-06-16T00:19:33.145Z,69.24
2018-06-16T00:20:13.712Z,69.15
2018-06-16T00:20:54.293Z,69.44
2018-06-16T00:21:34.858Z,69.24
2018-06-16T00:22:15.431Z,69.24
2018-06-16T00:22:56.005Z,69.24
2018-06-16T00:23:36.568Z,69.15
2018-06-16T00:24:17.124Z,69.53
2018-06-16T00:24:57.699Z,69.63
2018-06-16T00:25:38.269Z,69.53
2018-06-16T00:26:18.825Z,69.53
2018-06-16T00:26:59.395Z,69.44
2018-06-16T00:27:39.950Z,69.44
2018-06-16T00:28:20.513Z,69.82
2018-06-16T00:29:01.073Z,69.63
2018-06-16T00:29:41.635Z,69.63
2018-06-16T00:30:22.188Z,69.63
2018-06-16T00:31:02.763Z,70.01
2018-06-16T00:31:43.327Z,69.82
2018-06-16T00:32:24.072Z,69.53
2018-06-16T00:33:04.641Z,69.44
2018-06-16T00:33:45.207Z,70.01
2018-06-16T00:34:25.771Z,69.63
2018-06-16T00:35:06.344Z,69.63
2018-06-16T00:35:46.901Z,70.01
2018-06-16T00:36:27.479Z,70.11
2018-06-16T00:37:08.050Z,69.63
2018-06-16T00:37:48.609Z,69.92
2018-06-16T00:38:29.180Z,70.11
2018-06-16T00:39:09.756Z,69.82
2018-06-16T00:39:50.304Z,69.92
2018-06-16T00:40:30.900Z,70.11
2018-06-16T00:41:11.512Z,70.01
2018-06-16T00:41:52.033Z,70.01
2018-06-16T00:42:32.598Z,70.01
2018-06-16T00:43:13.163Z,70.11
2018-06-16T00:43:53.737Z,69.82
2018-06-16T00:44:34.313Z,70.4
2018-06-16T00:45:14.886Z,69.82
2018-06-16T00:45:55.469Z,70.4
2018-06-16T00:46:36.005Z,70.3
2018-06-16T00:47:16.571Z,69.92
2018-06-16T00:47:57.101Z,70.21
2018-06-16T00:48:37.676Z,69.92
2018-06-16T00:49:18.243Z,70.88
2018-06-16T00:49:58.807Z,70.78
2018-06-16T00:50:39.383Z,70.59
2018-06-16T00:51:19.977Z,70.68
2018-06-16T00:52:00.553Z,70.68
2018-06-16T00:52:41.123Z,70.78
2018-06-16T00:53:21.687Z,70.88
2018-06-16T00:54:02.241Z,71.08
2018-06-16T00:54:42.799Z,70.88
2018-06-16T00:55:23.359Z,71.08
2018-06-16T00:56:03.924Z,70.68
2018-06-16T00:56:44.464Z,71.26
2018-06-16T00:57:25.028Z,70.88
2018-06-16T00:58:05.595Z,71.36
2018-06-16T00:58:46.156Z,71.26
2018-06-16T00:59:26.716Z,71.36
2018-06-16T01:00:07.288Z,71.46
2018-06-16T01:00:47.864Z,71.36
2018-06-16T01:01:28.413Z,71.46
2018-06-16T01:02:08.982Z,70.5
2018-06-16T01:02:49.540Z,70.88
2018-06-16T01:03:30.088Z,71.26
2018-06-16T01:04:10.637Z,71.36
2018-06-16T01:04:51.193Z,71.26
2018-06-16T01:05:31.767Z,71.55
2018-06-16T01:06:12.347Z,71.26
2018-06-16T01:06:52.928Z,71.46
2018-06-16T01:07:33.498Z,71.26
2018-06-16T01:08:14.089Z,71.46
2018-06-16T01:08:54.654Z,71.26
2018-06-16T01:09:35.219Z,71.08
2018-06-16T01:10:15.796Z,71.55
2018-06-16T01:10:56.332Z,71.26
2018-06-16T01:11:36.904Z,71.26
2018-06-16T01:12:17.477Z,71.08
2018-06-16T01:12:58.047Z,71.75
2018-06-16T01:13:38.604Z,71.46
2018-06-16T01:14:19.176Z,71.65
2018-06-16T01:14:59.740Z,71.65
2018-06-16T01:15:40.292Z,71.46
2018-06-16T01:16:20.886Z,71.55
2018-06-16T01:17:01.402Z,71.46
2018-06-16T01:17:41.953Z,71.36
2018-06-16T01:18:22.506Z,71.75
2018-06-16T01:19:03.074Z,71.65
2018-06-16T01:19:43.668Z,71.36
2018-06-16T01:20:24.205Z,71.46
2018-06-16T01:21:04.775Z,71.94
2018-06-16T01:21:45.337Z,71.65
2018-06-16T01:22:25.905Z,71.94
2018-06-16T01:23:06.458Z,71.55
2018-06-16T01:23:47.028Z,71.75
2018-06-16T01:24:27.593Z,72.13
2018-06-16T01:25:08.168Z,72.13
2018-06-16T01:25:48.746Z,71.75
2018-06-16T01:26:29.296Z,71.94
2018-06-16T01:27:09.872Z,71.84
2018-06-16T01:27:50.429Z,71.75
2018-06-16T01:28:30.998Z,71.75
2018-06-16T01:29:11.556Z,71.84
2018-06-16T01:29:52.126Z,71.36
2018-06-16T01:30:32.698Z,71.71
2018-06-16T01:31:13.261Z,71.46
2018-06-16T01:31:53.823Z,71.65
2018-06-16T01:32:34.378Z,71.84
2018-06-16T01:33:14.928Z,71.94
2018-06-16T01:33:55.501Z,71.75
2018-06-16T01:34:36.065Z,71.94
2018-06-16T01:35:16.637Z,71.94
2018-06-16T01:35:57.209Z,71.65
2018-06-16T01:36:37.834Z,71.75
2018-06-16T01:37:18.394Z,71.71
2018-06-16T01:37:59.017Z,71.94
2018-06-16T01:38:39.598Z,71.81
2018-06-16T01:39:20.233Z,71.94
2018-06-16T01:40:00.808Z,71.84
2018-06-16T01:40:41.372Z,71.94
2018-06-16T01:41:21.940Z,71.81
2018-06-16T01:42:02.505Z,71.81
2018-06-16T01:42:43.109Z,71.81
2018-06-16T01:43:23.682Z,71.84
2018-06-16T01:44:04.243Z,71.61
2018-06-16T01:44:44.799Z,71.33
2018-06-16T01:45:25.363Z,71.36
2018-06-16T01:46:05.932Z,71.23
2018-06-16T01:46:46.521Z,71.75
2018-06-16T01:47:27.094Z,71.71
2018-06-16T01:48:07.661Z,71.23
2018-06-16T01:48:48.223Z,71.23
2018-06-16T01:49:28.796Z,71.33
2018-06-16T01:50:09.366Z,71.04
2018-06-16T01:50:49.937Z,71.33
2018-06-16T01:51:30.515Z,71.52
2018-06-16T01:52:11.055Z,71.42
2018-06-16T01:52:51.611Z,71.23
2018-06-16T01:53:32.174Z,70.65
2018-06-16T01:54:12.738Z,70.75
2018-06-16T01:54:53.307Z,71.14
2018-06-16T01:55:33.875Z,70.84
2018-06-16T01:56:14.441Z,71.04
2018-06-16T01:56:55.011Z,70.75
2018-06-16T01:57:35.567Z,71.23
2018-06-16T01:58:16.178Z,71.42
2018-06-16T01:58:56.773Z,71.23
2018-06-16T01:59:37.352Z,71.33
2018-06-16T02:00:17.924Z,71.52
2018-06-16T02:00:58.499Z,71.55
2018-06-16T02:01:39.064Z,71.33
2018-06-16T02:02:19.623Z,71.52
2018-06-16T02:03:00.177Z,71.33
2018-06-16T02:03:40.725Z,71.52
2018-06-16T02:04:21.294Z,71.33
2018-06-16T02:05:01.874Z,71.52
2018-06-16T02:05:42.430Z,71.33
2018-06-16T02:06:23.003Z,71.52
2018-06-16T02:07:03.556Z,71.33
2018-06-16T02:07:44.184Z,71.61
2018-06-16T02:08:24.756Z,71.52
2018-06-16T02:09:05.311Z,71.33
2018-06-16T02:09:45.869Z,71.14
2018-06-16T02:10:26.430Z,71.23
2018-06-16T02:11:06.985Z,71.52
2018-06-16T02:11:47.565Z,71.33
2018-06-16T02:12:28.134Z,71.91
2018-06-16T02:13:08.715Z,72
2018-06-16T02:13:49.275Z,71.81
2018-06-16T02:14:29.846Z,71.61
2018-06-16T02:15:10.412Z,71.91
2018-06-16T02:15:50.978Z,71.81
2018-06-16T02:16:31.537Z,71.71
2018-06-16T02:17:12.100Z,71.71
2018-06-16T02:17:52.659Z,71.61
2018-06-16T02:18:33.221Z,71.81
2018-06-16T02:19:13.796Z,71.71
2018-06-16T02:19:54.350Z,71.81
2018-06-16T02:20:34.919Z,71.91
2018-06-16T02:21:15.485Z,71.71
2018-06-16T02:21:56.048Z,71.91
2018-06-16T02:22:36.624Z,71.81
2018-06-16T02:23:17.190Z,71.61
2018-06-16T02:23:57.772Z,71.91
2018-06-16T02:24:38.342Z,71.91
2018-06-16T02:25:18.902Z,71.71
2018-06-16T02:25:59.474Z,71.91
2018-06-16T02:26:40.041Z,71.91
2018-06-16T02:27:20.595Z,71.81
2018-06-16T02:28:01.185Z,71.81
2018-06-16T02:28:41.741Z,71.91
2018-06-16T02:29:22.308Z,71.91
2018-06-16T02:30:02.869Z,71.71
2018-06-16T02:30:43.440Z,71.61
2018-06-16T02:31:24.000Z,71.61
2018-06-16T02:32:04.561Z,71.81
2018-06-16T02:32:45.129Z,71.91
2018-06-16T02:33:25.698Z,71.81
2018-06-16T02:34:06.271Z,71.91
2018-06-16T02:34:46.834Z,71.71
2018-06-16T02:35:27.395Z,71.91
2018-06-16T02:36:07.979Z,71.81
2018-06-16T02:36:48.554Z,71.81
2018-06-16T02:37:29.118Z,71.71
2018-06-16T02:38:09.679Z,71.81
2018-06-16T02:38:50.254Z,71.91
2018-06-16T02:39:30.825Z,71.81
2018-06-16T02:40:11.396Z,71.61
2018-06-16T02:40:51.964Z,71.61
2018-06-16T02:41:32.535Z,71.52
2018-06-16T02:42:13.108Z,71.91
2018-06-16T02:42:53.670Z,71.61
2018-06-16T02:43:34.234Z,71.81
2018-06-16T02:44:14.795Z,71.81
2018-06-16T02:44:55.375Z,72
2018-06-16T02:45:35.953Z,72
2018-06-16T02:46:16.514Z,72.29
2018-06-16T02:46:57.076Z,72.29
2018-06-16T02:47:37.652Z,72
2018-06-16T02:48:18.193Z,72
2018-06-16T02:48:58.764Z,72
2018-06-16T02:49:39.321Z,72.19
2018-06-16T02:50:19.995Z,72.29
2018-06-16T02:51:00.457Z,72
2018-06-16T02:51:41.139Z,72
2018-06-16T02:52:21.632Z,72.09
2018-06-16T02:53:02.203Z,72.19
2018-06-16T02:53:42.778Z,72.58
2018-06-16T02:54:23.335Z,72.58
2018-06-16T02:55:03.893Z,72.09
2018-06-16T02:55:44.463Z,72.29
2018-06-16T02:56:25.035Z,72.29
2018-06-16T02:57:05.607Z,72.38
2018-06-16T02:57:46.177Z,72.38
2018-06-16T02:58:26.806Z,72.48
2018-06-16T02:59:07.333Z,72.77
2018-06-16T02:59:47.911Z,72.77
2018-06-16T03:00:28.459Z,72.77
2018-06-16T03:01:09.025Z,72.86
2018-06-16T03:01:49.597Z,72.77
2018-06-16T03:02:30.152Z,72.86
2018-06-16T03:03:10.740Z,72.96
2018-06-16T03:03:51.281Z,72.77
2018-06-16T03:04:31.843Z,72.48
2018-06-16T03:05:12.405Z,73.06
2018-06-16T03:05:52.973Z,72.96
2018-06-16T03:06:33.532Z,72.86
2018-06-16T03:07:14.094Z,72.86
2018-06-16T03:07:54.658Z,72.96
2018-06-16T03:08:35.229Z,73.25
2018-06-16T03:09:15.795Z,72.67
2018-06-16T03:09:56.360Z,72.77
2018-06-16T03:10:36.943Z,73.15
2018-06-16T03:11:17.509Z,72.96
2018-06-16T03:11:58.077Z,72.77
2018-06-16T03:12:38.650Z,73.15
2018-06-16T03:13:19.207Z,73.15
2018-06-16T03:13:59.771Z,72.77
2018-06-16T03:14:40.341Z,72.77
2018-06-16T03:15:20.913Z,73.06
2018-06-16T03:16:01.484Z,73.25
2018-06-16T03:16:42.068Z,73.06
2018-06-16T03:17:22.634Z,73.25
2018-06-16T03:18:03.194Z,73.06
2018-06-16T03:18:43.757Z,73.06
2018-06-16T03:19:24.305Z,73.06
2018-06-16T03:20:04.867Z,72.38
2018-06-16T03:20:45.428Z,72.48
2018-06-16T03:21:25.990Z,73.06
2018-06-16T03:22:06.535Z,73.06
2018-06-16T03:22:47.106Z,73.25
2018-06-16T03:23:27.711Z,73.25
2018-06-16T03:24:08.267Z,72.48
2018-06-16T03:24:48.821Z,73.06
2018-06-16T03:25:29.377Z,72.77
2018-06-16T03:26:09.924Z,72.86
2018-06-16T03:26:50.503Z,72.86
2018-06-16T03:27:31.094Z,72.96
2018-06-16T03:28:11.670Z,73.06
2018-06-16T03:28:52.249Z,73.06
2018-06-16T03:29:32.783Z,73.06
2018-06-16T03:30:13.341Z,73.63
2018-06-16T03:30:53.889Z,73.25
2018-06-16T03:31:34.453Z,73.15
2018-06-16T03:32:15.021Z,72.96
2018-06-16T03:32:55.597Z,73.06
2018-06-16T03:33:36.154Z,73.44
2018-06-16T03:34:16.728Z,72.96
2018-06-16T03:34:57.297Z,73.44
2018-06-16T03:35:37.856Z,73.25
2018-06-16T03:36:18.437Z,72.96
2018-06-16T03:36:58.998Z,72.96
2018-06-16T03:37:39.601Z,73.25
2018-06-16T03:38:20.137Z,73.15
2018-06-16T03:39:00.700Z,73.35
2018-06-16T03:39:41.254Z,73.15
2018-06-16T03:40:21.818Z,73.15
2018-06-16T03:41:02.384Z,73.35
2018-06-16T03:41:42.997Z,73.25
2018-06-16T03:42:23.526Z,73.54
2018-06-16T03:43:04.091Z,73.06
2018-06-16T03:43:49.212Z,73.44
2018-06-16T03:47:44.726Z,73.15
2018-06-16T03:48:25.296Z,72.96
2018-06-16T03:49:05.855Z,73.25
2018-06-16T03:49:46.417Z,73.15
2018-06-16T03:50:26.977Z,73.54
2018-06-16T03:51:07.536Z,73.54
2018-06-16T03:51:48.083Z,72.96
2018-06-16T03:52:28.642Z,73.06
2018-06-16T03:53:09.257Z,73.06
2018-06-16T03:53:49.807Z,72.96
2018-06-16T03:54:30.376Z,73.06
2018-06-16T03:55:10.930Z,73.06
2018-06-16T03:55:51.486Z,73.44
2018-06-16T03:56:32.051Z,73.15
2018-06-16T03:57:12.594Z,73.73
2018-06-16T03:57:53.157Z,73.63
2018-06-16T03:58:33.709Z,73.44
2018-06-16T03:59:14.401Z,73.54
2018-06-16T03:59:56.925Z,73.54
2018-06-16T04:00:37.487Z,73.54
2018-06-16T04:01:18.039Z,73.44
2018-06-16T04:01:58.593Z,73.35
2018-06-16T04:02:39.264Z,73.73
2018-06-16T04:03:19.808Z,73.63
2018-06-16T04:04:00.366Z,74.02
2018-06-16T04:04:40.905Z,73.73
2018-06-16T04:05:21.460Z,73.73
2018-06-16T04:06:02.019Z,73.35
2018-06-16T04:06:42.564Z,73.54
2018-06-16T04:07:23.122Z,73.54
2018-06-16T04:08:03.688Z,73.83
2018-06-16T04:08:44.250Z,73.63
2018-06-16T04:09:24.824Z,73.83
2018-06-16T04:10:05.376Z,73.83
2018-06-16T04:10:45.957Z,73.73
2018-06-16T04:11:26.523Z,74.11
2018-06-16T04:12:07.088Z,74.11
2018-06-16T04:12:47.669Z,72.96
2018-06-16T04:13:28.257Z,73.15
2018-06-16T04:14:08.810Z,73.15
2018-06-16T04:14:49.371Z,73.25
2018-06-16T04:15:29.927Z,73.25
2018-06-16T04:16:10.504Z,72.86
2018-06-16T04:16:51.076Z,72.96
2018-06-16T04:17:31.640Z,73.25
2018-06-16T04:18:12.202Z,73.25
2018-06-16T04:18:52.785Z,73.15
2018-06-16T04:19:33.332Z,73.06
2018-06-16T04:20:13.897Z,73.54
2018-06-16T04:20:54.466Z,73.54
2018-06-16T04:21:35.028Z,73.73
2018-06-16T04:22:15.595Z,73.83
2018-06-16T04:22:56.148Z,73.63
2018-06-16T04:23:36.718Z,74.11
2018-06-16T04:24:17.284Z,74.02
2018-06-16T04:24:57.837Z,74.11
2018-06-16T04:25:38.395Z,74.21
2018-06-16T04:26:18.949Z,74.11
2018-06-16T04:26:59.518Z,74.21
2018-06-16T04:27:40.092Z,74.69
2018-06-16T04:28:20.642Z,74.5
2018-06-16T04:29:01.234Z,74.6
2018-06-16T04:31:14.039Z,74.02
2018-06-16T04:31:54.653Z,74.02
2018-06-16T04:32:35.141Z,73.92
2018-06-16T04:33:15.711Z,73.63
2018-06-16T04:33:56.219Z,73.44
2018-06-16T04:34:36.777Z,73.35
2018-06-16T04:35:17.342Z,73.35
2018-06-16T04:35:57.892Z,72.86
2018-06-16T04:36:38.430Z,72.86
2018-06-16T04:37:18.988Z,73.25
2018-06-16T04:37:59.524Z,73.44
2018-06-16T04:38:40.081Z,73.25
2018-06-16T04:39:20.636Z,72.86
2018-06-16T04:40:01.205Z,72.96
2018-06-16T04:40:41.737Z,72.86
2018-06-16T04:41:22.300Z,72.96
2018-06-16T04:42:02.856Z,72.9
2018-06-16T04:42:43.420Z,72.96
2018-06-16T04:43:23.984Z,73.06
2018-06-16T04:44:04.540Z,73.28
2018-06-16T04:44:45.102Z,73.15
2018-06-16T04:45:25.732Z,73.35
2018-06-16T04:46:06.253Z,73.09
2018-06-16T04:46:46.845Z,72.96
2018-06-16T04:47:27.402Z,73.44
2018-06-16T04:48:07.969Z,73.44
2018-06-16T04:48:48.534Z,73.19
2018-06-16T04:49:29.107Z,73
2018-06-16T04:50:09.682Z,72.71
2018-06-16T04:50:50.236Z,72.8
2018-06-16T04:51:30.807Z,72.9
2018-06-16T04:52:11.377Z,72.29
2018-06-16T04:52:51.948Z,72.71
2018-06-16T04:53:32.511Z,72.52
2018-06-16T04:54:13.073Z,72.13
2018-06-16T04:54:53.656Z,72.32
2018-06-16T04:55:34.221Z,72.32
2018-06-16T04:56:14.782Z,72.23
2018-06-16T04:56:55.349Z,72.32
2018-06-16T04:57:35.884Z,71.94
2018-06-16T04:58:16.434Z,72.03
2018-06-16T04:58:56.998Z,72.23
2018-06-16T04:59:37.575Z,72.23
2018-06-16T05:00:18.123Z,72.42
2018-06-16T05:00:58.677Z,72.42
2018-06-16T05:01:39.219Z,72.61
2018-06-16T05:02:19.787Z,72.61
2018-06-16T05:03:00.335Z,72.42
2018-06-16T05:03:40.895Z,72.23
2018-06-16T05:04:21.465Z,72.32
2018-06-16T05:05:02.025Z,72.13
2018-06-16T05:05:42.583Z,72.13
2018-06-16T05:06:23.146Z,72.32
2018-06-16T05:07:03.701Z,71.94
2018-06-16T05:07:44.257Z,71.46
2018-06-16T05:08:24.832Z,71.94
2018-06-16T05:09:05.476Z,71.75
2018-06-16T05:09:46.047Z,71.55
2018-06-16T05:10:26.627Z,71.55
2018-06-16T05:11:07.178Z,71.65
2018-06-16T05:11:47.746Z,71.26
2018-06-16T05:12:28.307Z,70.68
2018-06-16T05:13:08.892Z,70.98
2018-06-16T05:13:49.501Z,70.88
2018-06-16T05:14:30.048Z,70.88
2018-06-16T05:15:10.602Z,70.88
2018-06-16T05:15:51.149Z,71.36
2018-06-16T05:16:31.711Z,71.55
2018-06-16T05:17:12.258Z,71.55
2018-06-16T05:17:52.824Z,71.46
2018-06-16T05:18:33.925Z,71.59
2018-06-16T05:20:21.408Z,71.59
2018-06-16T05:21:01.984Z,70.68
2018-06-16T05:21:42.533Z,70.88
2018-06-16T05:22:23.112Z,70.53
2018-06-16T05:23:03.687Z,70.78
2018-06-16T05:23:44.240Z,70.5
2018-06-16T05:24:24.828Z,70.98
2018-06-16T05:25:05.423Z,70.15
2018-06-16T05:25:45.985Z,69.95
2018-06-16T05:26:26.525Z,70.05
2018-06-16T05:27:07.041Z,69.18
2018-06-16T05:27:47.616Z,69.67
2018-06-16T05:28:28.180Z,68.8
2018-06-16T05:29:08.735Z,69.09
2018-06-16T05:31:37.533Z,69.28
2018-06-16T05:32:18.095Z,69.28
2018-06-16T05:32:58.662Z,69.09
2018-06-16T05:33:39.235Z,68.99
2018-06-16T05:34:19.790Z,68.7
2018-06-16T05:35:00.335Z,68.9
2018-06-16T05:35:40.918Z,68.99
2018-06-16T05:36:21.502Z,68.7
2018-06-16T05:37:02.067Z,68.9
2018-06-16T05:37:42.604Z,69.28
2018-06-16T05:38:23.225Z,68.41
2018-06-16T05:39:03.752Z,68.32
2018-06-16T05:39:44.316Z,68.6
2018-06-16T05:40:24.853Z,69.09
2018-06-16T05:41:05.399Z,68.6
2018-06-16T05:41:45.959Z,68.13
2018-06-16T05:42:26.497Z,68.6
2018-06-16T05:43:07.093Z,68.41
2018-06-16T05:43:47.656Z,68.13
2018-06-16T05:44:28.253Z,68.41
2018-06-16T05:45:08.804Z,68.51
2018-06-16T05:45:49.358Z,68.41
2018-06-16T05:46:29.940Z,68.41
2018-06-16T05:47:10.517Z,68.6
2018-06-16T05:47:51.080Z,68.41
2018-06-16T05:48:31.635Z,68.06
2018-06-16T05:49:12.174Z,67.83
2018-06-16T05:49:52.738Z,68.06
2018-06-16T05:50:33.280Z,67.97
2018-06-16T05:51:13.840Z,67.87
2018-06-16T05:51:54.418Z,68.26
2018-06-16T05:52:34.971Z,68.64
2018-06-16T05:53:15.576Z,68.35
2018-06-16T05:53:56.235Z,68.44
2018-06-16T05:54:36.711Z,68.26
2018-06-16T05:55:17.265Z,67.77
2018-06-16T05:55:57.822Z,67.49
2018-06-16T05:56:38.353Z,67.68
2018-06-16T05:57:18.916Z,68.06
2018-06-16T05:57:59.499Z,67.77
2018-06-16T05:58:40.052Z,67.58
2018-06-16T05:59:20.617Z,67.87
2018-06-16T06:00:01.185Z,68.06
2018-06-16T06:00:41.883Z,68.16
2018-06-16T06:01:22.456Z,68.26
2018-06-16T06:02:03.001Z,68.44
2018-06-16T06:02:43.574Z,69.02
2018-06-16T06:03:24.135Z,68.64
2018-06-16T06:04:04.996Z,68.44
2018-06-16T06:04:45.926Z,68.74
2018-06-16T06:05:26.843Z,68.84
2018-06-16T06:06:07.403Z,68.44
2018-06-16T06:06:47.975Z,68.06
2018-06-16T06:07:28.540Z,68.16
2018-06-16T06:08:09.140Z,68.16
2018-06-16T06:08:49.717Z,68.26
2018-06-16T06:09:30.266Z,67.9
2018-06-16T06:10:10.970Z,68.26
2018-06-16T06:10:54.126Z,67.9
2018-06-16T06:11:39.437Z,67.9
2018-06-16T06:12:20.017Z,68.06
2018-06-16T06:13:00.672Z,67.77
2018-06-16T06:13:41.362Z,68.19
2018-06-16T06:14:21.969Z,67.81
2018-06-16T06:15:03.229Z,67.9
2018-06-16T06:15:44.047Z,67.9
2018-06-16T06:16:24.591Z,67.81
2018-06-16T06:17:05.179Z,67.9
2018-06-16T06:17:45.944Z,67.81
2018-06-16T06:18:26.642Z,68
2018-06-16T06:19:07.259Z,67.71
2018-06-16T06:19:47.846Z,67.42
2018-06-16T06:20:28.406Z,67.71
2018-06-16T06:21:09.014Z,67.23
2018-06-16T06:21:50.122Z,67.33
2018-06-16T06:22:31.112Z,67.42
2018-06-16T06:23:12.009Z,67.52
2018-06-16T06:23:53.545Z,67.33
2018-06-16T06:24:34.396Z,67.71
2018-06-16T06:25:15.081Z,66.94
2018-06-16T06:25:55.654Z,67.33
2018-06-16T06:26:36.227Z,67.03
2018-06-16T06:27:16.804Z,67.52
2018-06-16T06:27:57.365Z,66.75
2018-06-16T06:28:38.017Z,67.42
2018-06-16T06:29:18.591Z,67.68
2018-06-16T06:29:59.371Z,67.52
2018-06-16T06:30:40.201Z,67.42
2018-06-16T06:31:21.126Z,67.61
2018-06-16T06:32:01.889Z,67.71
2018-06-16T06:32:42.414Z,67.42
2018-06-16T06:33:22.973Z,67.71
2018-06-16T06:34:03.716Z,67.71
2018-06-16T06:34:45.183Z,67.33
2018-06-16T06:35:25.726Z,67.61
2018-06-16T06:36:06.632Z,67.52
2018-06-16T06:36:47.977Z,67.61
2018-06-16T06:37:28.519Z,67.33
2018-06-16T06:38:09.348Z,67.03
2018-06-16T06:38:49.904Z,67.23
2018-06-16T06:39:30.855Z,67.33
2018-06-16T06:40:11.499Z,67.03
2018-06-16T06:40:52.079Z,66.94
2018-06-16T06:41:32.658Z,67.03
2018-06-16T06:42:13.239Z,67.23
2018-06-16T06:42:54.259Z,67.03
2018-06-16T06:43:35.237Z,66.85
2018-06-16T06:44:16.105Z,66.85
2018-06-16T06:44:57.014Z,67.13
2018-06-16T06:45:38.042Z,67.13
2018-06-16T06:46:19.139Z,66.85
2018-06-16T06:47:00.633Z,66.27
2018-06-16T06:47:41.558Z,66.75
2018-06-16T06:48:23.239Z,66.46
2018-06-16T06:49:03.973Z,66.85
2018-06-16T06:49:45.015Z,66.85
2018-06-16T06:50:25.966Z,66.46
2018-06-16T06:51:07.482Z,66.55
2018-06-16T06:51:48.582Z,66.75
2018-06-16T06:52:29.623Z,66.65
2018-06-16T06:53:10.687Z,66.85
2018-06-16T06:53:51.740Z,66.65
2018-06-16T06:54:32.826Z,66.85
2018-06-16T06:55:13.788Z,66.65
2018-06-16T06:55:54.360Z,66.65
2018-06-16T06:56:34.904Z,66.69
2018-06-16T06:57:15.479Z,66.3
2018-06-16T06:57:56.054Z,66.59
2018-06-16T06:58:36.631Z,66.39
2018-06-16T06:59:17.192Z,66.69
2018-06-16T06:59:57.735Z,66.69
2018-06-16T07:00:38.339Z,66.39
2018-06-16T07:01:18.903Z,66.3
2018-06-16T07:01:59.615Z,66.69
2018-06-16T07:02:40.519Z,66.11
2018-06-16T07:03:21.256Z,66.2
2018-06-16T07:04:01.971Z,66.11
2018-06-16T07:04:42.447Z,66.01
2018-06-16T07:05:23.124Z,66.2
2018-06-16T07:06:03.763Z,65.63
2018-06-16T07:06:44.341Z,65.63
2018-06-16T07:07:24.881Z,65.81
2018-06-16T07:08:05.560Z,65.63
2018-06-16T07:08:46.282Z,65.72
2018-06-16T07:09:27.238Z,65.72
2018-06-16T07:10:07.975Z,65.81
2018-06-16T07:10:48.582Z,65.72
2018-06-16T07:11:29.137Z,65.72
2018-06-16T07:12:10.251Z,65.72
2018-06-16T07:12:50.898Z,65.72
2018-06-16T07:13:31.658Z,66.11
2018-06-16T07:14:12.214Z,66.3
2018-06-16T07:14:52.792Z,65.72
2018-06-16T07:15:33.357Z,65.63
2018-06-16T07:16:13.924Z,65.63
2018-06-16T07:16:54.507Z,65.91
2018-06-16T07:17:35.083Z,65.43
2018-06-16T07:18:15.642Z,65.91
2018-06-16T07:18:56.214Z,65.14
2018-06-16T07:19:36.850Z,65.14
2018-06-16T07:20:17.849Z,65.05
2018-06-16T07:20:58.883Z,64.95
2018-06-16T07:21:39.879Z,64.59
2018-06-16T07:22:21.005Z,64.76
2018-06-16T07:23:02.651Z,64.95
2018-06-16T07:23:43.935Z,64.69
2018-06-16T07:24:24.963Z,64.69
2018-06-16T07:25:05.910Z,64.59
2018-06-16T07:25:46.867Z,65.17
2018-06-16T07:26:27.870Z,64.66
2018-06-16T07:27:08.880Z,64.69
2018-06-16T07:27:50.111Z,64.59
2018-06-16T07:28:31.062Z,64.79
2018-06-16T07:29:12.036Z,64.79
2018-06-16T07:29:52.968Z,64.79
2018-06-16T07:30:34.733Z,64.69
2018-06-16T07:31:15.707Z,64.89
2018-06-16T07:31:56.698Z,64.59
2018-06-16T07:32:37.567Z,64.59
2018-06-16T07:33:18.442Z,64.59
2018-06-16T07:34:00.146Z,64.69
2018-06-16T07:34:40.994Z,64.31
2018-06-16T07:35:21.899Z,63.44
2018-06-16T07:36:02.892Z,63.92
2018-06-16T07:36:43.841Z,63.73
2018-06-16T07:37:24.849Z,63.85
2018-06-16T07:38:05.874Z,63.85
2018-06-16T07:38:46.933Z,63.76
2018-06-16T07:39:28.113Z,63.67
2018-06-16T07:40:09.208Z,63.47
2018-06-16T07:40:50.305Z,63.85
2018-06-16T07:41:31.390Z,63.76
2018-06-16T07:42:12.511Z,63.47
2018-06-16T07:42:53.488Z,63.57
2018-06-16T07:43:34.488Z,63.37
2018-06-16T07:44:15.480Z,63.09
2018-06-16T07:44:56.437Z,62.99
2018-06-16T07:45:37.523Z,62.99
2018-06-16T07:46:18.564Z,62.79
2018-06-16T07:46:59.693Z,63.21
2018-06-16T07:47:40.710Z,62.79
2018-06-16T07:48:21.727Z,62.79
2018-06-16T07:49:02.784Z,62.99
2018-06-16T07:49:43.793Z,62.15
2018-06-16T07:50:24.856Z,62.15
2018-06-16T07:51:05.910Z,62.25
2018-06-16T07:51:46.962Z,62.05
2018-06-16T07:52:27.951Z,61.67
2018-06-16T07:53:09.093Z,61.67
2018-06-16T07:53:50.168Z,60.89
2018-06-16T07:54:31.175Z,60.8
2018-06-16T07:55:12.290Z,60.8
2018-06-16T07:55:53.422Z,60.83
2018-06-16T07:56:34.498Z,60.93
2018-06-16T07:57:15.569Z,59.96
2018-06-16T07:57:56.616Z,58.61
2018-06-16T07:58:37.640Z,58.7
2018-06-16T07:59:18.733Z,58.7
2018-06-16T07:59:59.798Z,58.9
2018-06-16T08:00:40.841Z,58.22
2018-06-16T08:01:21.907Z,58.61
2018-06-16T08:02:02.943Z,58.61
2018-06-16T08:02:43.932Z,58.51
2018-06-16T08:03:24.960Z,59
2018-06-16T08:04:05.808Z,58.7
2018-06-16T08:05:53.314Z,58.54
2018-06-16T08:06:33.884Z,58.12
2018-06-16T08:08:31.539Z,57.54
2018-06-16T08:09:12.099Z,57.84
2018-06-16T08:09:52.678Z,58.35
2018-06-16T08:10:33.237Z,58.15
2018-06-16T08:11:13.781Z,58.54
2018-06-16T08:11:54.351Z,59.02
2018-06-16T08:12:34.917Z,58.83
2018-06-16T08:13:15.466Z,58.93
2018-06-16T08:13:56.047Z,57.38
2018-06-16T08:14:36.603Z,57.38
2018-06-16T08:15:17.247Z,57.48
2018-06-16T08:15:57.832Z,57.67
2018-06-16T08:16:38.388Z,57.38
2018-06-16T08:17:18.967Z,57.6
2018-06-16T08:17:59.591Z,58.57
2018-06-16T08:18:40.062Z,57.6
2018-06-16T08:19:20.634Z,56.35
2018-06-16T08:20:01.218Z,55.57
2018-06-16T08:20:41.794Z,55.99
2018-06-16T08:21:22.379Z,54.93
2018-06-16T08:22:02.929Z,54.05
2018-06-16T08:22:43.562Z,53.77
2018-06-16T08:23:24.112Z,53.96
2018-06-16T08:24:04.658Z,54.61
2018-06-16T08:24:45.206Z,54.13
2018-06-16T08:25:25.768Z,54.22
2018-06-16T08:26:06.338Z,53.96
2018-06-16T08:26:46.880Z,55.79
2018-06-16T08:27:27.423Z,55.31
2018-06-16T08:28:08.004Z,55.38
2018-06-16T08:28:48.595Z,55.31
2018-06-16T08:29:29.328Z,55.38
2018-06-16T08:30:10.605Z,54.8
2018-06-16T08:30:51.330Z,55.41
2018-06-16T08:31:32.063Z,55.11
2018-06-16T08:32:12.597Z,55.31
2018-06-16T08:32:53.400Z,55.89
2018-06-16T08:33:34.352Z,55.79
2018-06-16T08:34:15.128Z,55.7
2018-06-16T08:34:55.721Z,55.77
2018-06-16T08:35:36.414Z,56.28
2018-06-16T08:36:17.087Z,55.6
2018-06-16T08:36:57.734Z,56.09
2018-06-16T08:37:38.822Z,55.7
2018-06-16T08:38:19.374Z,55.21
2018-06-16T08:38:59.927Z,55.02
2018-06-16T08:39:40.552Z,54.93
2018-06-16T08:40:21.144Z,54.83
2018-06-16T08:41:01.701Z,54.93
2018-06-16T08:41:42.297Z,54.73
2018-06-16T08:42:22.850Z,55.02
2018-06-16T08:43:03.403Z,55.51
2018-06-16T08:43:43.971Z,55.21
2018-06-16T08:44:24.552Z,54.83
2018-06-16T08:45:05.127Z,54.73
2018-06-16T08:45:45.726Z,54.73
2018-06-16T08:46:26.290Z,53.86
2018-06-16T08:47:06.878Z,54.17
2018-06-16T08:47:47.447Z,54.53
2018-06-16T08:48:28.016Z,54.85
2018-06-16T08:49:08.588Z,54.17
2018-06-16T08:49:49.214Z,53.02
2018-06-16T08:50:29.849Z,51.73
2018-06-16T08:51:10.403Z,51.37
2018-06-16T08:51:50.976Z,52.02
2018-06-16T08:52:31.548Z,51.73
2018-06-16T08:53:12.219Z,52.8
2018-06-16T08:53:52.778Z,52.89
2018-06-16T08:54:33.331Z,54.05
2018-06-16T08:55:13.904Z,52.8
2018-06-16T08:55:54.482Z,52.82